sensor_id;sensor_type;location;lat;lon;timestamp;P1;durP1;ratioP1;P2;durP2;ratioP2
5937;SDS011;2994;51.220;4.412;2023-09-18T00:00:19;8.90;;;8.10;;
5937;SDS011;2994;51.220;4.412;2023-09-18T00:02:46;10.23;;;9.07;;
5937;SDS011;2994;51.220;4.412;2023-09-18T00:05:12;9.60;;;8.70;;
5937;SDS011;2994;51.220;4.412;2023-09-18T00:07:41;9.90;;;8.93;;
5937;SDS011;2994;51.220;4.412;2023-09-18T00:10:07;10.10;;;9.20;;
5937;SDS011;2994;51.220;4.412;2023-09-18T00:12:33;10.43;;;9.43;;
5937;SDS011;2994;51.220;4.412;2023-09-18T00:14:59;8.87;;;8.17;;
5937;SDS011;2994;51.220;4.412;2023-09-18T00:17:24;9.27;;;8.43;;
5937;SDS011;2994;51.220;4.412;2023-09-18T00:19:50;10.00;;;9.10;;
5937;SDS011;2994;51.220;4.412;2023-09-18T00:22:16;10.20;;;9.20;;
5937;SDS011;2994;51.220;4.412;2023-09-18T00:24:42;10.43;;;9.30;;
5937;SDS011;2994;51.220;4.412;2023-09-18T00:27:07;9.73;;;8.83;;
5937;SDS011;2994;51.220;4.412;2023-09-18T00:29:33;9.60;;;8.70;;
5937;SDS011;2994;51.220;4.412;2023-09-18T00:31:58;8.63;;;7.90;;
5937;SDS011;2994;51.220;4.412;2023-09-18T00:34:25;9.20;;;8.40;;
5937;SDS011;2994;51.220;4.412;2023-09-18T00:36:51;8.73;;;7.83;;
5937;SDS011;2994;51.220;4.412;2023-09-18T00:39:16;7.90;;;7.10;;
5937;SDS011;2994;51.220;4.412;2023-09-18T00:41:42;8.50;;;7.77;;
5937;SDS011;2994;51.220;4.412;2023-09-18T00:44:08;8.63;;;7.83;;
5937;SDS011;2994;51.220;4.412;2023-09-18T00:46:34;8.17;;;7.37;;
5937;SDS011;2994;51.220;4.412;2023-09-18T00:49:00;9.20;;;8.30;;
5937;SDS011;2994;51.220;4.412;2023-09-18T00:51:26;9.30;;;8.40;;
5937;SDS011;2994;51.220;4.412;2023-09-18T00:53:51;8.17;;;7.40;;
5937;SDS011;2994;51.220;4.412;2023-09-18T00:56:17;9.27;;;8.40;;
5937;SDS011;2994;51.220;4.412;2023-09-18T00:58:45;9.03;;;8.13;;
5937;SDS011;2994;51.220;4.412;2023-09-18T01:01:11;9.47;;;8.57;;
5937;SDS011;2994;51.220;4.412;2023-09-18T01:03:39;9.37;;;8.47;;
5937;SDS011;2994;51.220;4.412;2023-09-18T01:06:05;9.30;;;8.37;;
5937;SDS011;2994;51.220;4.412;2023-09-18T01:08:30;8.40;;;7.70;;
5937;SDS011;2994;51.220;4.412;2023-09-18T01:13:45;8.80;;;8.00;;
5937;SDS011;2994;51.220;4.412;2023-09-18T01:16:32;8.87;;;8.07;;
5937;SDS011;2994;51.220;4.412;2023-09-18T01:19:02;7.83;;;7.13;;
5937;SDS011;2994;51.220;4.412;2023-09-18T01:21:28;7.73;;;7.03;;
5937;SDS011;2994;51.220;4.412;2023-09-18T01:23:54;8.23;;;7.53;;
5937;SDS011;2994;51.220;4.412;2023-09-18T01:26:19;8.00;;;7.30;;
5937;SDS011;2994;51.220;4.412;2023-09-18T01:28:45;7.00;;;6.30;;
5937;SDS011;2994;51.220;4.412;2023-09-18T01:31:10;7.67;;;6.90;;
5937;SDS011;2994;51.220;4.412;2023-09-18T01:33:36;8.40;;;7.50;;
5937;SDS011;2994;51.220;4.412;2023-09-18T01:36:03;7.90;;;7.10;;
5937;SDS011;2994;51.220;4.412;2023-09-18T01:38:32;8.00;;;7.20;;
5937;SDS011;2994;51.220;4.412;2023-09-18T01:40:58;7.70;;;7.03;;
5937;SDS011;2994;51.220;4.412;2023-09-18T01:43:25;8.27;;;7.50;;
5937;SDS011;2994;51.220;4.412;2023-09-18T01:45:50;7.40;;;6.53;;
5937;SDS011;2994;51.220;4.412;2023-09-18T01:48:16;8.03;;;6.97;;
5937;SDS011;2994;51.220;4.412;2023-09-18T01:50:41;7.93;;;6.70;;
5937;SDS011;2994;51.220;4.412;2023-09-18T01:53:07;8.37;;;7.23;;
5937;SDS011;2994;51.220;4.412;2023-09-18T01:55:32;7.60;;;6.90;;
5937;SDS011;2994;51.220;4.412;2023-09-18T01:57:58;8.03;;;7.23;;
5937;SDS011;2994;51.220;4.412;2023-09-18T02:00:24;8.10;;;7.37;;
5937;SDS011;2994;51.220;4.412;2023-09-18T02:02:49;7.60;;;6.90;;
5937;SDS011;2994;51.220;4.412;2023-09-18T02:05:15;6.97;;;6.37;;
5937;SDS011;2994;51.220;4.412;2023-09-18T02:07:40;7.63;;;6.73;;
5937;SDS011;2994;51.220;4.412;2023-09-18T02:10:06;7.40;;;6.00;;
5937;SDS011;2994;51.220;4.412;2023-09-18T02:12:32;7.57;;;6.87;;
5937;SDS011;2994;51.220;4.412;2023-09-18T02:14:57;9.63;;;6.90;;
5937;SDS011;2994;51.220;4.412;2023-09-18T02:17:30;8.53;;;7.10;;
5937;SDS011;2994;51.220;4.412;2023-09-18T02:19:55;8.67;;;6.77;;
5937;SDS011;2994;51.220;4.412;2023-09-18T02:22:21;7.33;;;6.73;;
5937;SDS011;2994;51.220;4.412;2023-09-18T02:24:46;7.97;;;6.60;;
5937;SDS011;2994;51.220;4.412;2023-09-18T02:27:12;8.07;;;7.37;;
5937;SDS011;2994;51.220;4.412;2023-09-18T02:29:37;8.40;;;6.40;;
5937;SDS011;2994;51.220;4.412;2023-09-18T02:32:03;7.20;;;6.43;;
5937;SDS011;2994;51.220;4.412;2023-09-18T02:34:28;7.77;;;6.97;;
5937;SDS011;2994;51.220;4.412;2023-09-18T02:36:54;6.90;;;6.40;;
5937;SDS011;2994;51.220;4.412;2023-09-18T02:39:19;6.83;;;6.23;;
5937;SDS011;2994;51.220;4.412;2023-09-18T02:41:45;7.30;;;6.50;;
5937;SDS011;2994;51.220;4.412;2023-09-18T02:44:10;8.00;;;6.83;;
5937;SDS011;2994;51.220;4.412;2023-09-18T02:46:36;7.23;;;6.53;;
5937;SDS011;2994;51.220;4.412;2023-09-18T02:49:03;7.80;;;7.00;;
5937;SDS011;2994;51.220;4.412;2023-09-18T02:51:28;7.97;;;7.17;;
5937;SDS011;2994;51.220;4.412;2023-09-18T02:53:56;8.00;;;7.20;;
5937;SDS011;2994;51.220;4.412;2023-09-18T02:56:22;8.17;;;7.37;;
5937;SDS011;2994;51.220;4.412;2023-09-18T02:58:48;7.47;;;6.27;;
5937;SDS011;2994;51.220;4.412;2023-09-18T03:01:13;6.63;;;6.03;;
5937;SDS011;2994;51.220;4.412;2023-09-18T03:03:38;7.03;;;5.60;;
5937;SDS011;2994;51.220;4.412;2023-09-18T03:06:06;5.67;;;5.13;;
5937;SDS011;2994;51.220;4.412;2023-09-18T03:08:32;6.37;;;5.77;;
5937;SDS011;2994;51.220;4.412;2023-09-18T03:10:58;9.20;;;5.47;;
5937;SDS011;2994;51.220;4.412;2023-09-18T03:13:25;5.70;;;5.00;;
5937;SDS011;2994;51.220;4.412;2023-09-18T03:15:52;6.73;;;6.03;;
5937;SDS011;2994;51.220;4.412;2023-09-18T03:18:17;5.57;;;4.23;;
5937;SDS011;2994;51.220;4.412;2023-09-18T03:20:42;6.30;;;4.90;;
5937;SDS011;2994;51.220;4.412;2023-09-18T03:23:08;5.13;;;4.30;;
5937;SDS011;2994;51.220;4.412;2023-09-18T03:25:35;4.53;;;4.13;;
5937;SDS011;2994;51.220;4.412;2023-09-18T03:28:01;5.10;;;4.60;;
5937;SDS011;2994;51.220;4.412;2023-09-18T03:30:26;4.80;;;4.07;;
5937;SDS011;2994;51.220;4.412;2023-09-18T03:32:52;5.07;;;4.57;;
5937;SDS011;2994;51.220;4.412;2023-09-18T03:35:18;5.70;;;4.60;;
5937;SDS011;2994;51.220;4.412;2023-09-18T03:37:45;5.30;;;4.70;;
5937;SDS011;2994;51.220;4.412;2023-09-18T03:40:10;5.07;;;4.63;;
5937;SDS011;2994;51.220;4.412;2023-09-18T03:42:36;5.00;;;4.60;;
5937;SDS011;2994;51.220;4.412;2023-09-18T03:45:02;6.90;;;5.50;;
5937;SDS011;2994;51.220;4.412;2023-09-18T03:47:28;6.60;;;4.50;;
5937;SDS011;2994;51.220;4.412;2023-09-18T03:49:53;5.67;;;4.60;;
5937;SDS011;2994;51.220;4.412;2023-09-18T03:52:18;4.87;;;4.37;;
5937;SDS011;2994;51.220;4.412;2023-09-18T03:54:44;4.57;;;4.17;;
5937;SDS011;2994;51.220;4.412;2023-09-18T03:57:09;4.27;;;3.80;;
5937;SDS011;2994;51.220;4.412;2023-09-18T03:59:35;5.53;;;4.20;;
5937;SDS011;2994;51.220;4.412;2023-09-18T04:02:00;6.20;;;3.97;;
5937;SDS011;2994;51.220;4.412;2023-09-18T04:04:27;6.00;;;4.10;;
5937;SDS011;2994;51.220;4.412;2023-09-18T04:06:53;4.73;;;4.33;;
5937;SDS011;2994;51.220;4.412;2023-09-18T04:09:19;7.20;;;4.80;;
5937;SDS011;2994;51.220;4.412;2023-09-18T04:11:44;6.03;;;4.17;;
5937;SDS011;2994;51.220;4.412;2023-09-18T04:14:09;3.60;;;3.30;;
5937;SDS011;2994;51.220;4.412;2023-09-18T04:16:35;3.30;;;2.80;;
5937;SDS011;2994;51.220;4.412;2023-09-18T04:19:02;5.53;;;3.97;;
5937;SDS011;2994;51.220;4.412;2023-09-18T04:21:27;4.37;;;3.97;;
5937;SDS011;2994;51.220;4.412;2023-09-18T04:23:54;4.83;;;4.07;;
5937;SDS011;2994;51.220;4.412;2023-09-18T04:26:22;4.97;;;3.83;;
5937;SDS011;2994;51.220;4.412;2023-09-18T04:28:48;6.00;;;3.60;;
5937;SDS011;2994;51.220;4.412;2023-09-18T04:31:14;4.80;;;3.93;;
5937;SDS011;2994;51.220;4.412;2023-09-18T04:33:41;4.10;;;3.70;;
5937;SDS011;2994;51.220;4.412;2023-09-18T04:36:06;3.97;;;3.50;;
5937;SDS011;2994;51.220;4.412;2023-09-18T04:38:33;4.50;;;3.37;;
5937;SDS011;2994;51.220;4.412;2023-09-18T04:40:59;4.50;;;4.10;;
5937;SDS011;2994;51.220;4.412;2023-09-18T04:43:25;3.90;;;3.27;;
5937;SDS011;2994;51.220;4.412;2023-09-18T04:45:51;3.47;;;3.17;;
5937;SDS011;2994;51.220;4.412;2023-09-18T04:48:16;4.77;;;4.07;;
5937;SDS011;2994;51.220;4.412;2023-09-18T04:50:43;4.90;;;3.33;;
5937;SDS011;2994;51.220;4.412;2023-09-18T04:53:09;4.00;;;3.03;;
5937;SDS011;2994;51.220;4.412;2023-09-18T04:55:34;3.47;;;3.03;;
5937;SDS011;2994;51.220;4.412;2023-09-18T04:58:00;3.20;;;2.87;;
5937;SDS011;2994;51.220;4.412;2023-09-18T05:00:26;2.70;;;2.13;;
5937;SDS011;2994;51.220;4.412;2023-09-18T05:02:52;4.00;;;3.37;;
5937;SDS011;2994;51.220;4.412;2023-09-18T05:05:18;2.50;;;2.30;;
5937;SDS011;2994;51.220;4.412;2023-09-18T05:07:44;4.20;;;2.30;;
5937;SDS011;2994;51.220;4.412;2023-09-18T05:10:09;3.00;;;2.53;;
5937;SDS011;2994;51.220;4.412;2023-09-18T05:12:38;2.40;;;2.07;;
5937;SDS011;2994;51.220;4.412;2023-09-18T05:15:04;3.20;;;2.67;;
5937;SDS011;2994;51.220;4.412;2023-09-18T05:17:43;2.97;;;2.27;;
5937;SDS011;2994;51.220;4.412;2023-09-18T05:20:12;3.47;;;2.00;;
5937;SDS011;2994;51.220;4.412;2023-09-18T05:22:39;2.87;;;2.50;;
5937;SDS011;2994;51.220;4.412;2023-09-18T05:25:08;2.20;;;2.00;;
5937;SDS011;2994;51.220;4.412;2023-09-18T05:27:35;3.27;;;2.40;;
5937;SDS011;2994;51.220;4.412;2023-09-18T05:30:09;3.87;;;2.10;;
5937;SDS011;2994;51.220;4.412;2023-09-18T05:32:39;3.23;;;2.47;;
5937;SDS011;2994;51.220;4.412;2023-09-18T05:35:05;3.83;;;1.97;;
5937;SDS011;2994;51.220;4.412;2023-09-18T05:37:34;2.80;;;2.00;;
5937;SDS011;2994;51.220;4.412;2023-09-18T05:40:00;4.37;;;2.17;;
5937;SDS011;2994;51.220;4.412;2023-09-18T05:42:26;2.47;;;2.13;;
5937;SDS011;2994;51.220;4.412;2023-09-18T05:44:51;3.40;;;2.13;;
5937;SDS011;2994;51.220;4.412;2023-09-18T05:47:16;2.40;;;2.20;;
5937;SDS011;2994;51.220;4.412;2023-09-18T05:49:42;3.00;;;2.30;;
5937;SDS011;2994;51.220;4.412;2023-09-18T05:52:07;2.83;;;2.13;;
5937;SDS011;2994;51.220;4.412;2023-09-18T05:54:33;2.50;;;2.10;;
5937;SDS011;2994;51.220;4.412;2023-09-18T05:56:58;3.53;;;2.20;;
5937;SDS011;2994;51.220;4.412;2023-09-18T05:59:24;2.60;;;1.97;;
5937;SDS011;2994;51.220;4.412;2023-09-18T06:01:49;2.47;;;1.83;;
5937;SDS011;2994;51.220;4.412;2023-09-18T06:04:16;2.83;;;1.73;;
5937;SDS011;2994;51.220;4.412;2023-09-18T06:06:42;3.00;;;1.70;;
5937;SDS011;2994;51.220;4.412;2023-09-18T06:09:07;3.03;;;2.00;;
5937;SDS011;2994;51.220;4.412;2023-09-18T06:11:33;2.60;;;2.03;;
5937;SDS011;2994;51.220;4.412;2023-09-18T06:13:58;1.90;;;1.60;;
5937;SDS011;2994;51.220;4.412;2023-09-18T06:16:24;3.37;;;2.37;;
5937;SDS011;2994;51.220;4.412;2023-09-18T06:18:50;3.93;;;2.03;;
5937;SDS011;2994;51.220;4.412;2023-09-18T06:21:15;2.90;;;2.00;;
5937;SDS011;2994;51.220;4.412;2023-09-18T06:23:41;2.63;;;2.07;;
5937;SDS011;2994;51.220;4.412;2023-09-18T06:26:06;3.97;;;2.00;;
5937;SDS011;2994;51.220;4.412;2023-09-18T06:28:32;3.93;;;2.50;;
5937;SDS011;2994;51.220;4.412;2023-09-18T06:30:57;4.87;;;2.10;;
5937;SDS011;2994;51.220;4.412;2023-09-18T06:33:22;3.53;;;2.00;;
5937;SDS011;2994;51.220;4.412;2023-09-18T06:35:48;2.97;;;2.10;;
5937;SDS011;2994;51.220;4.412;2023-09-18T06:38:13;3.87;;;1.90;;
5937;SDS011;2994;51.220;4.412;2023-09-18T06:40:40;2.80;;;2.60;;
5937;SDS011;2994;51.220;4.412;2023-09-18T06:43:06;4.77;;;2.33;;
5937;SDS011;2994;51.220;4.412;2023-09-18T06:45:31;6.20;;;2.30;;
5937;SDS011;2994;51.220;4.412;2023-09-18T06:47:58;5.27;;;2.63;;
5937;SDS011;2994;51.220;4.412;2023-09-18T06:50:25;3.03;;;2.00;;
5937;SDS011;2994;51.220;4.412;2023-09-18T06:52:50;3.80;;;2.13;;
5937;SDS011;2994;51.220;4.412;2023-09-18T06:55:16;3.23;;;2.50;;
5937;SDS011;2994;51.220;4.412;2023-09-18T06:57:42;5.50;;;3.17;;
5937;SDS011;2994;51.220;4.412;2023-09-18T07:00:07;4.90;;;2.37;;
5937;SDS011;2994;51.220;4.412;2023-09-18T07:02:33;4.10;;;2.17;;
5937;SDS011;2994;51.220;4.412;2023-09-18T07:04:59;3.80;;;2.37;;
5937;SDS011;2994;51.220;4.412;2023-09-18T07:07:24;4.30;;;2.00;;
5937;SDS011;2994;51.220;4.412;2023-09-18T07:09:50;3.93;;;2.27;;
5937;SDS011;2994;51.220;4.412;2023-09-18T07:12:16;3.27;;;2.50;;
5937;SDS011;2994;51.220;4.412;2023-09-18T07:14:44;2.37;;;2.13;;
5937;SDS011;2994;51.220;4.412;2023-09-18T07:17:12;7.33;;;3.30;;
5937;SDS011;2994;51.220;4.412;2023-09-18T07:19:38;2.47;;;2.07;;
5937;SDS011;2994;51.220;4.412;2023-09-18T07:22:04;2.37;;;2.13;;
5937;SDS011;2994;51.220;4.412;2023-09-18T07:24:29;5.60;;;2.80;;
5937;SDS011;2994;51.220;4.412;2023-09-18T07:27:00;2.83;;;1.80;;
5937;SDS011;2994;51.220;4.412;2023-09-18T07:29:28;2.30;;;2.10;;
5937;SDS011;2994;51.220;4.412;2023-09-18T07:31:53;2.70;;;2.50;;
5937;SDS011;2994;51.220;4.412;2023-09-18T07:34:19;4.97;;;2.37;;
5937;SDS011;2994;51.220;4.412;2023-09-18T07:36:46;6.40;;;2.50;;
5937;SDS011;2994;51.220;4.412;2023-09-18T07:39:11;2.80;;;2.60;;
5937;SDS011;2994;51.220;4.412;2023-09-18T07:41:37;4.13;;;2.90;;
5937;SDS011;2994;51.220;4.412;2023-09-18T07:44:02;3.90;;;2.53;;
5937;SDS011;2994;51.220;4.412;2023-09-18T07:46:28;4.07;;;2.20;;
5937;SDS011;2994;51.220;4.412;2023-09-18T07:48:54;4.40;;;2.60;;
5937;SDS011;2994;51.220;4.412;2023-09-18T07:51:20;3.70;;;2.17;;
5937;SDS011;2994;51.220;4.412;2023-09-18T07:53:45;3.70;;;2.77;;
5937;SDS011;2994;51.220;4.412;2023-09-18T07:56:11;3.67;;;3.23;;
5937;SDS011;2994;51.220;4.412;2023-09-18T07:58:37;3.93;;;2.90;;
5937;SDS011;2994;51.220;4.412;2023-09-18T08:01:04;3.70;;;3.20;;
5937;SDS011;2994;51.220;4.412;2023-09-18T08:03:30;4.73;;;3.47;;
5937;SDS011;2994;51.220;4.412;2023-09-18T08:05:56;4.77;;;3.50;;
5937;SDS011;2994;51.220;4.412;2023-09-18T08:08:22;4.20;;;3.20;;
5937;SDS011;2994;51.220;4.412;2023-09-18T08:10:49;3.83;;;3.30;;
5937;SDS011;2994;51.220;4.412;2023-09-18T08:13:15;4.33;;;3.20;;
5937;SDS011;2994;51.220;4.412;2023-09-18T08:15:41;4.90;;;3.43;;
5937;SDS011;2994;51.220;4.412;2023-09-18T08:18:07;4.33;;;3.93;;
5937;SDS011;2994;51.220;4.412;2023-09-18T08:20:32;5.67;;;4.17;;
5937;SDS011;2994;51.220;4.412;2023-09-18T08:22:58;5.43;;;4.40;;
5937;SDS011;2994;51.220;4.412;2023-09-18T08:25:26;3.83;;;3.53;;
5937;SDS011;2994;51.220;4.412;2023-09-18T08:27:52;4.67;;;3.83;;
5937;SDS011;2994;51.220;4.412;2023-09-18T08:30:17;3.43;;;3.13;;
5937;SDS011;2994;51.220;4.412;2023-09-18T08:32:45;5.47;;;4.10;;
5937;SDS011;2994;51.220;4.412;2023-09-18T08:35:11;5.50;;;3.77;;
5937;SDS011;2994;51.220;4.412;2023-09-18T08:37:37;6.90;;;4.07;;
5937;SDS011;2994;51.220;4.412;2023-09-18T08:40:02;5.10;;;3.80;;
5937;SDS011;2994;51.220;4.412;2023-09-18T08:42:34;5.90;;;3.83;;
5937;SDS011;2994;51.220;4.412;2023-09-18T08:45:01;4.90;;;4.37;;
5937;SDS011;2994;51.220;4.412;2023-09-18T08:47:28;4.63;;;3.70;;
5937;SDS011;2994;51.220;4.412;2023-09-18T08:49:55;6.63;;;3.70;;
5937;SDS011;2994;51.220;4.412;2023-09-18T08:52:22;10.13;;;3.63;;
5937;SDS011;2994;51.220;4.412;2023-09-18T08:54:49;6.70;;;3.77;;
5937;SDS011;2994;51.220;4.412;2023-09-18T08:57:16;4.30;;;3.90;;
5937;SDS011;2994;51.220;4.412;2023-09-18T08:59:41;4.37;;;3.97;;
5937;SDS011;2994;51.220;4.412;2023-09-18T09:02:08;4.33;;;3.93;;
5937;SDS011;2994;51.220;4.412;2023-09-18T09:04:37;5.57;;;3.60;;
5937;SDS011;2994;51.220;4.412;2023-09-18T09:07:03;4.93;;;2.97;;
5937;SDS011;2994;51.220;4.412;2023-09-18T09:09:29;4.83;;;4.33;;
5937;SDS011;2994;51.220;4.412;2023-09-18T09:11:56;4.50;;;3.90;;
5937;SDS011;2994;51.220;4.412;2023-09-18T09:14:21;5.43;;;4.10;;
5937;SDS011;2994;51.220;4.412;2023-09-18T09:16:53;3.90;;;3.57;;
5937;SDS011;2994;51.220;4.412;2023-09-18T09:19:28;4.97;;;4.00;;
5937;SDS011;2994;51.220;4.412;2023-09-18T09:22:01;4.53;;;4.13;;
5937;SDS011;2994;51.220;4.412;2023-09-18T09:24:40;6.20;;;3.87;;
5937;SDS011;2994;51.220;4.412;2023-09-18T09:27:07;4.70;;;4.27;;
5937;SDS011;2994;51.220;4.412;2023-09-18T09:29:33;4.73;;;4.27;;
5937;SDS011;2994;51.220;4.412;2023-09-18T09:32:15;6.63;;;4.90;;
5937;SDS011;2994;51.220;4.412;2023-09-18T09:34:42;4.73;;;3.83;;
5937;SDS011;2994;51.220;4.412;2023-09-18T09:37:08;6.33;;;5.00;;
5937;SDS011;2994;51.220;4.412;2023-09-18T09:39:34;7.37;;;5.43;;
5937;SDS011;2994;51.220;4.412;2023-09-18T09:42:02;6.00;;;4.80;;
5937;SDS011;2994;51.220;4.412;2023-09-18T09:44:32;5.70;;;4.53;;
5937;SDS011;2994;51.220;4.412;2023-09-18T09:46:58;8.10;;;5.00;;
5937;SDS011;2994;51.220;4.412;2023-09-18T09:49:25;8.13;;;4.70;;
5937;SDS011;2994;51.220;4.412;2023-09-18T09:51:53;7.63;;;5.50;;
5937;SDS011;2994;51.220;4.412;2023-09-18T09:54:40;6.00;;;5.40;;
5937;SDS011;2994;51.220;4.412;2023-09-18T09:57:05;7.50;;;4.97;;
5937;SDS011;2994;51.220;4.412;2023-09-18T09:59:31;6.53;;;5.30;;
5937;SDS011;2994;51.220;4.412;2023-09-18T10:02:00;5.73;;;5.00;;
5937;SDS011;2994;51.220;4.412;2023-09-18T10:04:27;6.83;;;4.80;;
5937;SDS011;2994;51.220;4.412;2023-09-18T10:06:58;5.70;;;5.20;;
5937;SDS011;2994;51.220;4.412;2023-09-18T10:09:32;4.60;;;4.20;;
5937;SDS011;2994;51.220;4.412;2023-09-18T10:12:00;5.90;;;5.27;;
5937;SDS011;2994;51.220;4.412;2023-09-18T10:14:30;6.80;;;5.00;;
5937;SDS011;2994;51.220;4.412;2023-09-18T10:16:59;5.43;;;4.43;;
5937;SDS011;2994;51.220;4.412;2023-09-18T10:19:40;5.37;;;4.13;;
5937;SDS011;2994;51.220;4.412;2023-09-18T10:22:25;5.63;;;5.13;;
5937;SDS011;2994;51.220;4.412;2023-09-18T10:25:13;7.77;;;5.73;;
5937;SDS011;2994;51.220;4.412;2023-09-18T10:27:43;4.73;;;4.33;;
5937;SDS011;2994;51.220;4.412;2023-09-18T10:30:11;7.03;;;5.10;;
5937;SDS011;2994;51.220;4.412;2023-09-18T10:32:39;5.37;;;4.93;;
5937;SDS011;2994;51.220;4.412;2023-09-18T10:35:08;5.60;;;5.10;;
5937;SDS011;2994;51.220;4.412;2023-09-18T10:37:34;5.27;;;4.70;;
5937;SDS011;2994;51.220;4.412;2023-09-18T10:40:02;5.53;;;4.87;;
5937;SDS011;2994;51.220;4.412;2023-09-18T10:42:33;6.00;;;4.03;;
5937;SDS011;2994;51.220;4.412;2023-09-18T10:45:00;5.27;;;4.67;;
5937;SDS011;2994;51.220;4.412;2023-09-18T10:47:29;5.20;;;4.50;;
5937;SDS011;2994;51.220;4.412;2023-09-18T10:49:56;5.50;;;3.90;;
5937;SDS011;2994;51.220;4.412;2023-09-18T10:52:21;5.13;;;4.10;;
5937;SDS011;2994;51.220;4.412;2023-09-18T10:54:47;6.77;;;5.03;;
5937;SDS011;2994;51.220;4.412;2023-09-18T10:57:13;8.37;;;4.87;;
5937;SDS011;2994;51.220;4.412;2023-09-18T10:59:48;7.97;;;5.20;;
5937;SDS011;2994;51.220;4.412;2023-09-18T11:02:13;5.23;;;4.17;;
5937;SDS011;2994;51.220;4.412;2023-09-18T11:04:41;7.27;;;4.80;;
5937;SDS011;2994;51.220;4.412;2023-09-18T11:07:07;8.80;;;4.90;;
5937;SDS011;2994;51.220;4.412;2023-09-18T11:09:41;4.97;;;3.83;;
5937;SDS011;2994;51.220;4.412;2023-09-18T11:12:09;4.93;;;3.87;;
5937;SDS011;2994;51.220;4.412;2023-09-18T11:14:58;4.60;;;4.00;;
5937;SDS011;2994;51.220;4.412;2023-09-18T11:17:33;5.50;;;4.00;;
5937;SDS011;2994;51.220;4.412;2023-09-18T11:22:35;3.80;;;3.50;;
5937;SDS011;2994;51.220;4.412;2023-09-18T11:28:07;6.30;;;4.33;;
5937;SDS011;2994;51.220;4.412;2023-09-18T11:30:55;4.27;;;3.80;;
5937;SDS011;2994;51.220;4.412;2023-09-18T11:33:32;4.33;;;3.60;;
5937;SDS011;2994;51.220;4.412;2023-09-18T11:36:05;4.50;;;3.80;;
5937;SDS011;2994;51.220;4.412;2023-09-18T11:38:32;3.33;;;3.03;;
5937;SDS011;2994;51.220;4.412;2023-09-18T11:41:20;4.43;;;3.40;;
5937;SDS011;2994;51.220;4.412;2023-09-18T11:43:52;3.47;;;3.17;;
5937;SDS011;2994;51.220;4.412;2023-09-18T11:46:50;7.27;;;3.40;;
5937;SDS011;2994;51.220;4.412;2023-09-18T11:49:23;4.67;;;4.00;;
5937;SDS011;2994;51.220;4.412;2023-09-18T11:51:51;4.27;;;3.30;;
5937;SDS011;2994;51.220;4.412;2023-09-18T11:54:17;3.83;;;3.47;;
5937;SDS011;2994;51.220;4.412;2023-09-18T11:56:43;4.00;;;3.47;;
5937;SDS011;2994;51.220;4.412;2023-09-18T11:59:09;4.43;;;3.20;;
5937;SDS011;2994;51.220;4.412;2023-09-18T12:01:36;5.30;;;3.13;;
5937;SDS011;2994;51.220;4.412;2023-09-18T12:04:04;4.23;;;3.77;;
5937;SDS011;2994;51.220;4.412;2023-09-18T12:06:34;5.90;;;3.17;;
5937;SDS011;2994;51.220;4.412;2023-09-18T12:09:01;6.20;;;3.77;;
5937;SDS011;2994;51.220;4.412;2023-09-18T12:11:28;4.77;;;4.10;;
5937;SDS011;2994;51.220;4.412;2023-09-18T12:13:54;4.60;;;3.60;;
5937;SDS011;2994;51.220;4.412;2023-09-18T12:16:20;3.80;;;3.47;;
5937;SDS011;2994;51.220;4.412;2023-09-18T12:18:48;5.17;;;3.30;;
5937;SDS011;2994;51.220;4.412;2023-09-18T12:21:15;3.60;;;3.30;;
5937;SDS011;2994;51.220;4.412;2023-09-18T12:23:42;5.10;;;3.07;;
5937;SDS011;2994;51.220;4.412;2023-09-18T12:26:10;3.30;;;3.00;;
5937;SDS011;2994;51.220;4.412;2023-09-18T12:28:38;5.23;;;3.00;;
5937;SDS011;2994;51.220;4.412;2023-09-18T12:31:04;7.43;;;3.17;;
5937;SDS011;2994;51.220;4.412;2023-09-18T12:33:34;4.60;;;3.10;;
5937;SDS011;2994;51.220;4.412;2023-09-18T12:36:01;5.80;;;2.80;;
5937;SDS011;2994;51.220;4.412;2023-09-18T12:38:29;4.10;;;3.30;;
5937;SDS011;2994;51.220;4.412;2023-09-18T12:40:59;5.30;;;3.70;;
5937;SDS011;2994;51.220;4.412;2023-09-18T12:43:34;3.23;;;2.90;;
5937;SDS011;2994;51.220;4.412;2023-09-18T12:46:04;4.40;;;2.93;;
5937;SDS011;2994;51.220;4.412;2023-09-18T12:48:31;3.10;;;2.80;;
5937;SDS011;2994;51.220;4.412;2023-09-18T12:51:03;4.17;;;3.00;;
5937;SDS011;2994;51.220;4.412;2023-09-18T12:53:31;3.20;;;2.90;;
5937;SDS011;2994;51.220;4.412;2023-09-18T12:56:31;2.90;;;2.60;;
5937;SDS011;2994;51.220;4.412;2023-09-18T12:58:49;3.50;;;2.77;;
5937;SDS011;2994;51.220;4.412;2023-09-18T13:01:15;3.97;;;2.70;;
5937;SDS011;2994;51.220;4.412;2023-09-18T13:03:42;5.27;;;2.93;;
5937;SDS011;2994;51.220;4.412;2023-09-18T13:06:09;3.20;;;2.90;;
5937;SDS011;2994;51.220;4.412;2023-09-18T13:08:45;5.13;;;2.63;;
5937;SDS011;2994;51.220;4.412;2023-09-18T13:11:12;6.30;;;2.83;;
5937;SDS011;2994;51.220;4.412;2023-09-18T13:13:41;3.83;;;2.87;;
5937;SDS011;2994;51.220;4.412;2023-09-18T13:16:07;3.10;;;2.57;;
5937;SDS011;2994;51.220;4.412;2023-09-18T13:18:37;4.23;;;2.93;;
5937;SDS011;2994;51.220;4.412;2023-09-18T13:21:14;2.63;;;2.43;;
5937;SDS011;2994;51.220;4.412;2023-09-18T13:23:40;3.20;;;2.90;;
5937;SDS011;2994;51.220;4.412;2023-09-18T13:26:06;5.70;;;3.10;;
5937;SDS011;2994;51.220;4.412;2023-09-18T13:28:35;4.73;;;3.17;;
5937;SDS011;2994;51.220;4.412;2023-09-18T13:31:02;4.10;;;2.70;;
5937;SDS011;2994;51.220;4.412;2023-09-18T13:33:30;3.53;;;2.70;;
5937;SDS011;2994;51.220;4.412;2023-09-18T13:35:57;3.77;;;2.90;;
5937;SDS011;2994;51.220;4.412;2023-09-18T13:38:22;8.50;;;2.73;;
5937;SDS011;2994;51.220;4.412;2023-09-18T13:40:48;2.60;;;2.40;;
5937;SDS011;2994;51.220;4.412;2023-09-18T13:43:14;4.13;;;2.50;;
5937;SDS011;2994;51.220;4.412;2023-09-18T13:45:48;3.30;;;1.97;;
5937;SDS011;2994;51.220;4.412;2023-09-18T13:48:17;2.77;;;2.57;;
5937;SDS011;2994;51.220;4.412;2023-09-18T13:50:43;3.70;;;2.33;;
5937;SDS011;2994;51.220;4.412;2023-09-18T13:53:09;2.30;;;2.00;;
5937;SDS011;2994;51.220;4.412;2023-09-18T13:55:35;3.30;;;3.00;;
5937;SDS011;2994;51.220;4.412;2023-09-18T13:58:01;4.43;;;2.67;;
5937;SDS011;2994;51.220;4.412;2023-09-18T14:00:30;3.13;;;2.10;;
5937;SDS011;2994;51.220;4.412;2023-09-18T14:02:56;2.43;;;2.10;;
5937;SDS011;2994;51.220;4.412;2023-09-18T14:05:21;3.90;;;2.70;;
5937;SDS011;2994;51.220;4.412;2023-09-18T14:07:47;2.37;;;2.00;;
5937;SDS011;2994;51.220;4.412;2023-09-18T14:10:13;2.20;;;2.00;;
5937;SDS011;2994;51.220;4.412;2023-09-18T14:12:40;3.27;;;2.27;;
5937;SDS011;2994;51.220;4.412;2023-09-18T14:15:06;3.37;;;1.53;;
5937;SDS011;2994;51.220;4.412;2023-09-18T14:17:36;11.30;;;2.53;;
5937;SDS011;2994;51.220;4.412;2023-09-18T14:20:05;6.03;;;2.07;;
5937;SDS011;2994;51.220;4.412;2023-09-18T14:22:31;5.90;;;2.70;;
5937;SDS011;2994;51.220;4.412;2023-09-18T14:25:00;5.00;;;2.03;;
5937;SDS011;2994;51.220;4.412;2023-09-18T14:27:31;3.97;;;1.87;;
5937;SDS011;2994;51.220;4.412;2023-09-18T14:29:57;4.73;;;2.63;;
5937;SDS011;2994;51.220;4.412;2023-09-18T14:32:23;3.00;;;2.30;;
5937;SDS011;2994;51.220;4.412;2023-09-18T14:34:48;2.73;;;1.60;;
5937;SDS011;2994;51.220;4.412;2023-09-18T14:37:14;3.07;;;1.90;;
5937;SDS011;2994;51.220;4.412;2023-09-18T14:39:39;3.57;;;1.70;;
5937;SDS011;2994;51.220;4.412;2023-09-18T14:42:05;3.23;;;1.70;;
5937;SDS011;2994;51.220;4.412;2023-09-18T14:44:31;2.33;;;1.83;;
5937;SDS011;2994;51.220;4.412;2023-09-18T14:46:57;2.33;;;1.90;;
5937;SDS011;2994;51.220;4.412;2023-09-18T14:49:24;2.40;;;1.60;;
5937;SDS011;2994;51.220;4.412;2023-09-18T14:51:51;3.40;;;1.90;;
5937;SDS011;2994;51.220;4.412;2023-09-18T14:54:18;3.00;;;2.10;;
5937;SDS011;2994;51.220;4.412;2023-09-18T14:56:44;3.83;;;2.27;;
5937;SDS011;2994;51.220;4.412;2023-09-18T14:59:11;2.90;;;2.07;;
5937;SDS011;2994;51.220;4.412;2023-09-18T15:01:37;4.20;;;2.13;;
5937;SDS011;2994;51.220;4.412;2023-09-18T15:04:03;5.33;;;2.73;;
5937;SDS011;2994;51.220;4.412;2023-09-18T15:06:31;3.53;;;2.03;;
5937;SDS011;2994;51.220;4.412;2023-09-18T15:09:17;2.77;;;2.20;;
5937;SDS011;2994;51.220;4.412;2023-09-18T15:11:43;2.53;;;2.10;;
5937;SDS011;2994;51.220;4.412;2023-09-18T15:14:12;2.87;;;2.30;;
5937;SDS011;2994;51.220;4.412;2023-09-18T15:16:38;4.90;;;2.93;;
5937;SDS011;2994;51.220;4.412;2023-09-18T15:19:03;3.83;;;2.73;;
5937;SDS011;2994;51.220;4.412;2023-09-18T15:21:31;3.77;;;2.50;;
5937;SDS011;2994;51.220;4.412;2023-09-18T15:23:56;3.37;;;2.63;;